createdAt,value
2023-03-14T00:01:39.310Z,11.65
2023-03-14T00:03:44.331Z,11.68
2023-03-14T00:05:47.396Z,11.72
2023-03-14T00:07:50.466Z,11.77
2023-03-14T00:09:53.936Z,11.83
2023-03-14T00:11:56.984Z,11.81
2023-03-14T00:14:00.602Z,11.84
2023-03-14T00:16:05.224Z,11.85
2023-03-14T00:18:08.256Z,11.87
2023-03-14T00:20:14.366Z,11.79
2023-03-14T00:22:17.463Z,11.81
2023-03-14T00:24:20.458Z,11.81
2023-03-14T00:26:23.891Z,11.84
2023-03-14T00:28:26.919Z,11.85
2023-03-14T00:30:30.024Z,11.87
2023-03-14T00:32:33.195Z,11.83
2023-03-14T00:34:36.296Z,11.84
2023-03-14T00:36:40.743Z,11.85
2023-03-14T00:38:45.402Z,11.83
2023-03-14T00:40:48.340Z,11.78
2023-03-14T00:42:51.423Z,11.84
2023-03-14T00:44:56.256Z,11.88
2023-03-14T00:46:59.740Z,11.89
2023-03-14T00:49:02.850Z,11.97
2023-03-14T00:51:07.121Z,11.93
2023-03-14T00:53:11.632Z,12.00
2023-03-14T00:55:14.723Z,12.02
2023-03-14T00:57:17.752Z,12.00
2023-03-14T00:59:20.851Z,12.03
2023-03-14T01:01:24.516Z,12.02
2023-03-14T01:03:27.761Z,11.97
2023-03-14T01:05:31.027Z,11.99
2023-03-14T01:07:34.173Z,11.98
2023-03-14T01:09:38.601Z,12.02
2023-03-14T01:11:41.700Z,12.00
2023-03-14T01:13:44.914Z,11.97
2023-03-14T01:15:48.045Z,11.99
2023-03-14T01:17:51.180Z,11.99
2023-03-14T01:19:54.257Z,12.01
2023-03-14T01:21:57.684Z,12.04
2023-03-14T01:24:01.967Z,12.08
2023-03-14T01:26:08.217Z,12.05
2023-03-14T01:28:11.283Z,12.06
2023-03-14T01:30:15.145Z,11.99
2023-03-14T01:32:18.398Z,12.03
2023-03-14T01:34:21.482Z,11.98
2023-03-14T01:36:25.931Z,11.97
2023-03-14T01:38:29.003Z,12.02
2023-03-14T01:40:32.236Z,12.00
2023-03-14T01:42:36.672Z,11.96
2023-03-14T01:44:50.780Z,11.93
2023-03-14T01:46:53.868Z,11.90
2023-03-14T01:49:04.110Z,11.95
2023-03-14T01:51:11.683Z,11.95
2023-03-14T01:53:15.194Z,11.90
2023-03-14T01:55:20.009Z,11.82
2023-03-14T01:57:25.690Z,11.76
2023-03-14T01:59:31.872Z,11.74
2023-03-14T02:01:35.166Z,11.71
2023-03-14T02:03:43.781Z,11.72
2023-03-14T02:05:48.082Z,11.72
2023-03-14T02:07:57.317Z,11.72
2023-03-14T02:10:06.295Z,11.69
2023-03-14T02:12:11.094Z,11.69
2023-03-14T02:14:37.302Z,11.62
2023-03-14T02:17:08.230Z,11.63
2023-03-14T02:20:01.005Z,11.59
2023-03-14T02:22:13.058Z,11.55
2023-03-14T02:24:29.614Z,11.56
2023-03-14T02:26:41.261Z,11.52
2023-03-14T02:28:45.760Z,11.49
2023-03-14T02:30:48.939Z,11.49
2023-03-14T02:32:54.718Z,11.49
2023-03-14T02:34:59.398Z,11.41
2023-03-14T02:37:03.330Z,11.43
2023-03-14T02:39:10.697Z,11.40
2023-03-14T02:41:17.263Z,11.41
2023-03-14T02:43:26.315Z,11.41
2023-03-14T02:45:42.772Z,11.43
2023-03-14T02:47:49.346Z,11.47
2023-03-14T02:49:54.510Z,11.48
2023-03-14T02:51:57.571Z,11.47
2023-03-14T02:54:00.932Z,11.47
2023-03-14T02:56:04.594Z,11.48
2023-03-14T02:58:09.185Z,11.43
2023-03-14T03:00:13.538Z,11.41
2023-03-14T03:02:19.006Z,11.39
2023-03-14T03:04:22.105Z,11.36
2023-03-14T03:06:25.367Z,11.40
2023-03-14T03:08:29.207Z,11.37
2023-03-14T03:10:34.004Z,11.32
2023-03-14T03:12:37.102Z,11.35
2023-03-14T03:14:41.789Z,11.30
2023-03-14T03:16:45.332Z,11.31
2023-03-14T03:18:49.801Z,11.27
2023-03-14T03:20:52.886Z,11.24
2023-03-14T03:22:55.963Z,11.21
2023-03-14T03:24:59.093Z,11.18
2023-03-14T03:27:02.182Z,11.16
2023-03-14T03:29:05.416Z,11.14
2023-03-14T03:31:10.070Z,11.15
2023-03-14T03:33:14.204Z,11.08
2023-03-14T03:35:21.833Z,11.07
2023-03-14T03:37:25.228Z,11.09
2023-03-14T03:39:28.275Z,11.10
2023-03-14T03:41:33.176Z,11.09
2023-03-14T03:43:36.640Z,11.06
2023-03-14T03:45:41.830Z,11.07
2023-03-14T03:47:44.972Z,11.08
2023-03-14T03:49:48.361Z,11.11
2023-03-14T03:51:53.224Z,11.07
2023-03-14T03:53:56.413Z,11.09
2023-03-14T03:56:05.722Z,11.06
2023-03-14T03:58:10.089Z,11.11
2023-03-14T04:00:14.004Z,11.13
2023-03-14T04:02:19.857Z,11.08
2023-03-14T04:04:23.123Z,11.06
2023-03-14T04:06:26.537Z,11.07
2023-03-14T04:08:33.439Z,11.05
2023-03-14T04:10:36.935Z,11.09
2023-03-14T04:13:00.182Z,11.08
2023-03-14T04:15:06.806Z,11.05
2023-03-14T04:17:10.761Z,11.06
2023-03-14T04:19:14.013Z,11.07
2023-03-14T04:21:17.933Z,11.03
2023-03-14T04:23:25.679Z,11.03
2023-03-14T04:25:30.232Z,10.99
2023-03-14T04:27:35.202Z,11.03
2023-03-14T04:29:40.054Z,11.01
2023-03-14T04:31:43.307Z,11.02
2023-03-14T04:33:47.175Z,10.98
2023-03-14T04:35:55.809Z,10.96
2023-03-14T04:37:59.102Z,10.91
2023-03-14T04:40:05.021Z,10.96
2023-03-14T04:42:11.083Z,10.99
2023-03-14T04:44:15.175Z,11.01
2023-03-14T04:46:18.837Z,11.00
2023-03-14T04:48:22.525Z,10.93
2023-03-14T04:50:25.661Z,10.92
2023-03-14T04:52:29.083Z,10.94
2023-03-14T04:54:32.841Z,10.97
2023-03-14T04:56:38.012Z,10.97
2023-03-14T04:58:42.521Z,11.00
2023-03-14T05:00:45.810Z,11.03
2023-03-14T05:03:10.898Z,11.05
2023-03-14T05:05:32.921Z,11.10
2023-03-14T05:08:02.174Z,11.09
2023-03-14T05:10:22.466Z,11.10
2023-03-14T05:12:51.805Z,11.12
2023-03-14T05:15:14.545Z,11.11
2023-03-14T05:17:34.774Z,11.11
2023-03-14T05:19:58.374Z,11.09
2023-03-14T05:22:13.124Z,11.06
2023-03-14T05:24:36.472Z,11.04
2023-03-14T05:26:39.557Z,11.00
2023-03-14T05:29:02.959Z,11.01
2023-03-14T05:31:29.883Z,11.04
2023-03-14T05:34:05.385Z,11.00
2023-03-14T05:36:17.831Z,10.96
2023-03-14T05:38:39.504Z,10.94
2023-03-14T05:41:02.833Z,10.89
2023-03-14T05:43:25.056Z,10.93
2023-03-14T05:45:50.797Z,10.95
2023-03-14T05:48:13.819Z,10.96
2023-03-14T05:50:24.304Z,10.95
2023-03-14T05:52:46.568Z,10.94
2023-03-14T05:55:15.778Z,10.89
2023-03-14T05:57:39.149Z,10.87
2023-03-14T05:59:47.737Z,10.81
2023-03-14T06:02:05.324Z,10.75
2023-03-14T06:04:20.280Z,10.77
2023-03-14T06:06:27.794Z,10.79
2023-03-14T06:08:31.150Z,10.78
2023-03-14T06:10:34.273Z,10.80
2023-03-14T06:12:37.355Z,10.84
2023-03-14T06:14:40.499Z,10.85
2023-03-14T06:16:43.718Z,10.86
2023-03-14T06:18:50.033Z,10.86
2023-03-14T06:20:57.463Z,10.84
2023-03-14T06:23:02.990Z,10.79
2023-03-14T06:25:08.843Z,10.74
2023-03-14T06:27:11.910Z,10.78
2023-03-14T06:29:15.012Z,10.80
2023-03-14T06:31:18.538Z,10.79
2023-03-14T06:33:29.462Z,10.78
2023-03-14T06:35:32.658Z,10.81
2023-03-14T06:37:37.122Z,10.86
2023-03-14T06:39:40.840Z,10.85
2023-03-14T06:41:51.298Z,10.89
2023-03-14T06:43:56.518Z,10.90
2023-03-14T06:45:59.936Z,10.93
2023-03-14T06:48:03.151Z,10.98
2023-03-14T06:50:23.354Z,10.99
2023-03-14T06:52:27.051Z,11.06
2023-03-14T06:54:31.486Z,11.20
2023-03-14T06:56:34.629Z,11.35
2023-03-14T06:58:37.876Z,11.47
2023-03-14T07:00:42.815Z,11.79
2023-03-14T07:02:47.790Z,11.99
2023-03-14T07:05:20.247Z,12.15
2023-03-14T07:07:24.595Z,12.41
2023-03-14T07:09:27.727Z,12.75
2023-03-14T07:11:36.660Z,13.11
2023-03-14T07:13:39.857Z,13.46
2023-03-14T07:15:44.239Z,13.76
2023-03-14T07:17:49.008Z,13.78
2023-03-14T07:19:52.303Z,13.97
2023-03-14T07:21:55.556Z,14.01
2023-03-14T07:24:01.659Z,13.80
2023-03-14T07:26:04.712Z,13.77
2023-03-14T07:28:10.916Z,13.68
2023-03-14T07:30:16.943Z,13.77
2023-03-14T07:32:20.261Z,14.09
2023-03-14T07:34:23.369Z,14.04
2023-03-14T07:36:27.114Z,13.86
2023-03-14T07:38:30.273Z,13.60
2023-03-14T07:40:49.875Z,13.38
2023-03-14T07:42:56.168Z,13.13
2023-03-14T07:45:18.544Z,13.02
2023-03-14T07:47:21.753Z,13.00
2023-03-14T07:49:25.066Z,12.97
2023-03-14T07:51:28.165Z,13.09
2023-03-14T07:53:31.219Z,13.25
2023-03-14T07:55:34.228Z,13.14
2023-03-14T07:57:37.314Z,13.11
2023-03-14T07:59:40.664Z,13.14
2023-03-14T08:01:45.171Z,13.19
2023-03-14T08:03:48.271Z,13.23
2023-03-14T08:05:52.427Z,13.31
2023-03-14T08:07:55.550Z,13.29
2023-03-14T08:09:58.606Z,13.74
2023-03-14T08:12:01.740Z,13.97
2023-03-14T08:14:04.915Z,14.08
2023-03-14T08:16:08.680Z,14.26
2023-03-14T08:18:13.207Z,14.47
2023-03-14T08:20:16.382Z,14.87
2023-03-14T08:22:20.284Z,14.93
2023-03-14T08:24:23.618Z,14.52
2023-03-14T08:26:26.686Z,14.33
2023-03-14T08:28:31.648Z,14.08
2023-03-14T08:30:34.817Z,14.03
2023-03-14T08:32:37.933Z,13.94
2023-03-14T08:34:42.460Z,14.12
2023-03-14T08:36:45.420Z,14.32
2023-03-14T08:38:48.419Z,14.60
2023-03-14T08:40:51.522Z,14.90
2023-03-14T08:42:54.985Z,14.95
2023-03-14T08:44:58.040Z,14.97
2023-03-14T08:47:01.182Z,14.96
2023-03-14T08:49:04.682Z,14.80
2023-03-14T08:51:09.948Z,14.43
2023-03-14T08:53:13.067Z,14.24
2023-03-14T08:55:16.138Z,14.14
2023-03-14T08:57:19.285Z,14.14
2023-03-14T08:59:22.537Z,14.20
2023-03-14T09:01:27.336Z,14.06
2023-03-14T09:03:30.508Z,14.04
2023-03-14T09:05:35.397Z,14.05
2023-03-14T09:07:40.387Z,14.07
2023-03-14T09:09:43.576Z,14.01
2023-03-14T09:11:46.736Z,13.87
2023-03-14T09:13:50.361Z,13.88
2023-03-14T09:15:53.669Z,13.99
2023-03-14T09:17:56.856Z,14.05
2023-03-14T09:20:00.719Z,14.09
2023-03-14T09:22:04.701Z,14.03
2023-03-14T09:24:09.316Z,14.02
2023-03-14T09:26:12.408Z,13.99
2023-03-14T09:28:15.513Z,14.07
2023-03-14T09:30:18.673Z,13.97
2023-03-14T09:32:21.844Z,13.71
2023-03-14T09:34:24.915Z,13.57
2023-03-14T09:36:28.137Z,13.60
2023-03-14T09:38:32.119Z,13.23
2023-03-14T09:40:38.391Z,12.99
2023-03-14T09:42:41.881Z,13.07
2023-03-14T09:44:52.139Z,13.01
2023-03-14T09:46:56.729Z,12.99
2023-03-14T09:48:59.865Z,13.02
2023-03-14T09:51:07.794Z,12.98
2023-03-14T09:53:15.213Z,13.05
2023-03-14T09:55:20.624Z,13.07
2023-03-14T09:57:27.404Z,13.20
2023-03-14T09:59:31.163Z,13.28
2023-03-14T10:01:36.558Z,13.21
2023-03-14T10:03:39.929Z,13.14
2023-03-14T10:05:43.910Z,13.05
2023-03-14T10:07:47.235Z,13.07
2023-03-14T10:09:52.337Z,13.01
2023-03-14T10:11:57.296Z,13.10
2023-03-14T10:14:10.973Z,13.18
2023-03-14T10:16:14.117Z,13.16
2023-03-14T10:18:17.477Z,13.25
2023-03-14T10:20:34.420Z,13.41
2023-03-14T10:22:37.453Z,13.66
2023-03-14T10:24:47.819Z,13.77
2023-03-14T10:26:52.484Z,14.00
2023-03-14T10:29:03.631Z,14.27
2023-03-14T10:31:08.791Z,14.80
2023-03-14T10:33:13.559Z,15.01
2023-03-14T10:35:23.974Z,15.08
2023-03-14T10:37:28.608Z,15.19
2023-03-14T10:39:39.894Z,15.25
2023-03-14T10:41:43.625Z,15.07
2023-03-14T10:43:46.940Z,15.04
2023-03-14T10:45:58.743Z,14.95
2023-03-14T10:48:19.082Z,14.55
2023-03-14T10:50:26.339Z,14.48
2023-03-14T10:52:31.192Z,14.27
2023-03-14T10:54:38.821Z,14.14
2023-03-14T10:56:42.083Z,14.22
2023-03-14T10:58:46.266Z,14.09
2023-03-14T11:00:52.697Z,14.01
2023-03-14T11:03:08.678Z,14.05
2023-03-14T11:05:21.125Z,14.14
2023-03-14T11:07:28.154Z,14.14
2023-03-14T11:09:35.784Z,14.19
2023-03-14T11:11:40.633Z,14.12
2023-03-14T11:13:53.215Z,14.05
2023-03-14T11:16:00.925Z,14.05
2023-03-14T11:18:32.579Z,13.92
2023-03-14T11:20:40.779Z,13.95
2023-03-14T11:22:49.034Z,13.94
2023-03-14T11:25:01.952Z,13.92
2023-03-14T11:27:10.377Z,13.97
2023-03-14T11:29:22.559Z,13.92
2023-03-14T11:31:28.565Z,13.87
2023-03-14T11:33:39.181Z,13.91
2023-03-14T11:35:48.237Z,13.93
2023-03-14T11:37:55.242Z,13.93
2023-03-14T11:40:02.975Z,13.90
2023-03-14T11:42:06.224Z,13.80
2023-03-14T11:44:13.446Z,13.76
2023-03-14T11:46:19.981Z,13.65
2023-03-14T11:48:30.973Z,13.54
2023-03-14T11:50:36.033Z,13.50
2023-03-14T11:52:44.488Z,13.42
2023-03-14T11:54:51.898Z,13.46
2023-03-14T11:56:57.562Z,13.41
2023-03-14T11:59:04.086Z,13.08
2023-03-14T12:01:11.322Z,13.00
2023-03-14T12:03:19.681Z,13.01
2023-03-14T12:05:39.382Z,12.85
2023-03-14T12:07:45.973Z,12.94
2023-03-14T12:09:50.551Z,12.90
2023-03-14T12:11:57.628Z,12.87
2023-03-14T12:14:01.185Z,12.94
2023-03-14T12:16:09.111Z,12.81
2023-03-14T12:18:21.672Z,12.71
2023-03-14T12:20:25.831Z,12.55
2023-03-14T12:22:31.859Z,12.57
2023-03-14T12:24:37.400Z,12.47
2023-03-14T12:26:52.301Z,12.41
2023-03-14T12:29:13.832Z,12.17
2023-03-14T12:31:39.708Z,12.19
2023-03-14T12:33:42.928Z,12.20
2023-03-14T12:35:49.124Z,12.09
2023-03-14T12:37:55.274Z,12.18
2023-03-14T12:40:18.603Z,12.22
2023-03-14T12:42:44.621Z,12.26
2023-03-14T12:44:50.303Z,12.27
2023-03-14T12:46:53.449Z,12.13
2023-03-14T12:49:08.536Z,12.11
2023-03-14T12:51:16.010Z,12.19
2023-03-14T12:53:46.611Z,12.11
2023-03-14T12:55:52.788Z,12.10
2023-03-14T12:58:01.772Z,12.04
2023-03-14T13:00:16.138Z,11.89
2023-03-14T13:02:27.771Z,11.91
2023-03-14T13:04:39.812Z,11.69
2023-03-14T13:06:57.992Z,11.54
2023-03-14T13:09:46.975Z,11.47
2023-03-14T13:11:51.841Z,11.44
2023-03-14T13:13:59.932Z,11.46
2023-03-14T13:16:04.946Z,11.45
2023-03-14T13:18:15.034Z,11.69
2023-03-14T13:20:22.579Z,11.81
2023-03-14T13:22:29.187Z,11.81
2023-03-14T13:24:39.142Z,11.76
2023-03-14T13:26:44.677Z,11.72
2023-03-14T13:28:49.772Z,11.74
2023-03-14T13:30:57.693Z,11.76
2023-03-14T13:33:06.504Z,11.73
2023-03-14T13:35:17.707Z,11.77
2023-03-14T13:37:23.366Z,11.75
2023-03-14T13:39:30.271Z,11.75
2023-03-14T13:41:34.107Z,11.76
2023-03-14T13:43:39.208Z,11.83
2023-03-14T13:45:51.037Z,11.78
2023-03-14T13:47:54.665Z,11.69
2023-03-14T13:49:58.359Z,11.67
2023-03-14T13:52:01.864Z,11.68
2023-03-14T13:54:05.806Z,11.73
2023-03-14T13:56:11.045Z,11.75
2023-03-14T13:58:22.867Z,11.66
2023-03-14T14:00:28.262Z,11.65
2023-03-14T14:02:34.307Z,11.59
2023-03-14T14:04:39.288Z,11.51
2023-03-14T14:06:50.665Z,11.52
2023-03-14T14:08:55.643Z,11.52
2023-03-14T14:11:02.699Z,11.59
2023-03-14T14:13:09.267Z,11.67
2023-03-14T14:15:15.809Z,11.65
2023-03-14T14:17:21.114Z,11.67
2023-03-14T14:19:26.601Z,11.66
2023-03-14T14:21:31.150Z,11.58
2023-03-14T14:23:34.986Z,11.56
2023-03-14T14:25:41.490Z,11.50
2023-03-14T14:27:46.644Z,11.48
2023-03-14T14:29:59.909Z,11.45
2023-03-14T14:32:13.890Z,11.40
2023-03-14T14:34:21.497Z,11.39
2023-03-14T14:36:28.664Z,11.31
2023-03-14T14:38:32.236Z,11.23
2023-03-14T14:40:46.315Z,11.21
2023-03-14T14:42:50.369Z,11.12
2023-03-14T14:44:54.344Z,11.14
2023-03-14T14:47:00.169Z,11.15
2023-03-14T14:49:12.393Z,11.05
2023-03-14T14:51:27.409Z,10.95
2023-03-14T14:53:32.701Z,10.90
2023-03-14T14:55:40.958Z,10.93
2023-03-14T14:57:51.333Z,10.93
2023-03-14T14:59:57.393Z,10.94
2023-03-14T15:02:02.097Z,11.04
2023-03-14T15:04:13.518Z,10.84
2023-03-14T15:06:18.501Z,10.86
2023-03-14T15:08:23.653Z,10.91
2023-03-14T15:10:27.652Z,10.89
2023-03-14T15:12:30.920Z,10.90
2023-03-14T15:14:34.217Z,10.91
2023-03-14T15:16:38.011Z,10.91
2023-03-14T15:18:41.611Z,10.93
2023-03-14T15:20:45.128Z,10.90
2023-03-14T15:22:48.786Z,10.90
2023-03-14T15:24:53.728Z,10.94
2023-03-14T15:26:57.061Z,10.97
2023-03-14T15:29:00.662Z,11.04
2023-03-14T15:31:04.317Z,11.18
2023-03-14T15:33:09.790Z,11.25
2023-03-14T15:35:12.901Z,11.32
2023-03-14T15:37:17.813Z,11.42
2023-03-14T15:39:20.890Z,11.48
2023-03-14T15:41:25.485Z,11.45
2023-03-14T15:43:28.644Z,11.39
2023-03-14T15:45:32.493Z,11.34
2023-03-14T15:47:35.637Z,11.30
2023-03-14T15:49:38.676Z,11.30
2023-03-14T15:51:41.734Z,11.36
2023-03-14T15:53:45.016Z,11.43
2023-03-14T15:55:48.121Z,11.38
2023-03-14T15:57:52.645Z,11.39
2023-03-14T15:59:56.150Z,11.40
2023-03-14T16:01:59.387Z,11.34
2023-03-14T16:04:03.384Z,11.31
2023-03-14T16:06:07.249Z,11.26
2023-03-14T16:08:10.661Z,11.26
2023-03-14T16:10:15.034Z,11.22
2023-03-14T16:12:18.155Z,11.20
2023-03-14T16:14:22.708Z,11.23
2023-03-14T16:16:25.902Z,11.13
2023-03-14T16:18:31.620Z,11.11
2023-03-14T16:20:47.271Z,11.10
2023-03-14T16:22:50.996Z,11.09
2023-03-14T16:24:54.146Z,11.05
2023-03-14T16:26:57.284Z,11.03
2023-03-14T16:29:00.419Z,11.03
2023-03-14T16:31:05.785Z,11.03
2023-03-14T16:33:12.473Z,11.00
2023-03-14T16:35:16.345Z,11.01
2023-03-14T16:37:21.505Z,10.97
2023-03-14T16:39:24.604Z,10.90
2023-03-14T16:41:31.300Z,10.84
2023-03-14T16:43:37.220Z,10.84
2023-03-14T16:45:40.423Z,10.77
2023-03-14T16:47:44.967Z,10.72
2023-03-14T16:49:48.077Z,10.73
2023-03-14T16:51:51.082Z,10.72
2023-03-14T16:53:54.203Z,10.74
2023-03-14T16:55:57.971Z,10.68
2023-03-14T16:58:01.057Z,10.70
2023-03-14T17:00:04.934Z,10.69
2023-03-14T17:02:08.664Z,10.70
2023-03-14T17:04:13.498Z,10.73
2023-03-14T17:06:18.346Z,10.71
2023-03-14T17:08:22.115Z,10.72
2023-03-14T17:10:25.485Z,10.69
2023-03-14T17:12:28.593Z,10.66
2023-03-14T17:14:31.712Z,10.65
2023-03-14T17:16:34.978Z,10.66
2023-03-14T17:18:38.638Z,10.58
2023-03-14T17:20:43.167Z,10.54
2023-03-14T17:22:46.390Z,10.52
2023-03-14T17:24:49.618Z,10.33
2023-03-14T17:26:52.682Z,10.23
2023-03-14T17:28:56.048Z,10.17
2023-03-14T17:31:07.931Z,10.17
2023-03-14T17:33:11.230Z,10.15
2023-03-14T17:35:14.401Z,10.06
2023-03-14T17:37:19.160Z,9.99
2023-03-14T17:39:22.260Z,9.96
2023-03-14T17:41:25.415Z,9.89
2023-03-14T17:43:28.501Z,9.89
2023-03-14T17:45:31.784Z,9.83
2023-03-14T17:47:35.052Z,9.71
2023-03-14T17:49:38.703Z,9.69
2023-03-14T17:51:41.862Z,9.58
2023-03-14T17:53:46.558Z,9.44
2023-03-14T17:55:50.026Z,9.39
2023-03-14T17:57:53.184Z,9.34
2023-03-14T17:59:56.354Z,9.21
2023-03-14T18:02:00.981Z,9.19
2023-03-14T18:04:04.333Z,9.18
2023-03-14T18:06:08.795Z,9.22
2023-03-14T18:08:13.935Z,9.16
2023-03-14T18:10:20.279Z,9.13
2023-03-14T18:12:23.741Z,9.16
2023-03-14T18:14:26.921Z,9.11
2023-03-14T18:16:32.824Z,9.13
2023-03-14T18:18:36.221Z,9.14
2023-03-14T18:20:39.289Z,9.15
2023-03-14T18:22:43.026Z,9.18
2023-03-14T18:24:46.285Z,9.19
2023-03-14T18:26:51.068Z,9.16
2023-03-14T18:28:55.680Z,9.15
2023-03-14T18:31:02.402Z,9.17
2023-03-14T18:33:05.642Z,9.12
2023-03-14T18:35:09.456Z,8.98
2023-03-14T18:37:12.637Z,8.85
2023-03-14T18:39:15.799Z,8.85
2023-03-14T18:41:20.846Z,8.78
2023-03-14T18:43:25.476Z,8.74
2023-03-14T18:45:28.628Z,8.74
2023-03-14T18:47:35.886Z,8.74
2023-03-14T18:49:39.016Z,8.68
2023-03-14T18:51:43.398Z,8.51
2023-03-14T18:53:48.560Z,8.32
2023-03-14T18:55:55.784Z,8.32
2023-03-14T18:57:59.102Z,8.39
2023-03-14T19:00:04.541Z,8.43
2023-03-14T19:02:07.975Z,8.46
2023-03-14T19:04:11.546Z,8.51
2023-03-14T19:06:15.362Z,8.51
2023-03-14T19:08:18.548Z,8.53
2023-03-14T19:10:21.706Z,8.54
2023-03-14T19:12:24.922Z,8.57
2023-03-14T19:14:28.087Z,8.61
2023-03-14T19:16:32.839Z,8.62
2023-03-14T19:18:35.972Z,8.65
2023-03-14T19:20:39.088Z,8.72
2023-03-14T19:22:42.680Z,8.67
2023-03-14T19:24:45.856Z,8.66
2023-03-14T19:26:49.609Z,8.66
2023-03-14T19:28:53.921Z,8.70
2023-03-14T19:30:57.142Z,8.68
2023-03-14T19:33:01.776Z,8.71
2023-03-14T19:35:05.231Z,8.75
2023-03-14T19:37:08.443Z,8.76
2023-03-14T19:39:11.608Z,8.77
2023-03-14T19:41:14.750Z,8.74
2023-03-14T19:43:18.414Z,8.74
2023-03-14T19:45:22.483Z,8.76
2023-03-14T19:47:25.739Z,8.77
2023-03-14T19:49:32.009Z,8.77
2023-03-14T19:51:35.759Z,8.78
2023-03-14T19:53:39.055Z,8.77
2023-03-14T19:55:46.676Z,8.66
2023-03-14T19:57:52.075Z,8.64
2023-03-14T19:59:55.201Z,8.64
2023-03-14T20:01:58.644Z,8.64
2023-03-14T20:04:04.605Z,8.62
2023-03-14T20:06:11.852Z,8.63
2023-03-14T20:08:15.026Z,8.63
2023-03-14T20:10:19.820Z,8.65
2023-03-14T20:12:23.023Z,8.65
2023-03-14T20:14:26.211Z,8.69
2023-03-14T20:16:29.459Z,8.68
2023-03-14T20:18:32.666Z,8.68
2023-03-14T20:20:35.804Z,8.67
2023-03-14T20:22:40.852Z,8.67
2023-03-14T20:24:44.141Z,8.69
2023-03-14T20:26:47.673Z,8.67
2023-03-14T20:28:50.765Z,8.65
2023-03-14T20:30:54.135Z,8.64
2023-03-14T20:32:57.397Z,8.63
2023-03-14T20:35:01.870Z,8.61
2023-03-14T20:37:05.091Z,8.52
2023-03-14T20:39:10.421Z,8.53
2023-03-14T20:41:13.621Z,8.58
2023-03-14T20:43:16.728Z,8.53
2023-03-14T20:45:19.858Z,8.49
2023-03-14T20:47:22.976Z,8.48
2023-03-14T20:49:26.127Z,8.49
2023-03-14T20:51:29.666Z,8.45
2023-03-14T20:53:32.825Z,8.40
2023-03-14T20:55:37.805Z,8.43
2023-03-14T20:57:41.095Z,8.45
2023-03-14T20:59:44.841Z,8.48
2023-03-14T21:01:49.540Z,8.52
2023-03-14T21:03:52.709Z,8.56
2023-03-14T21:05:55.880Z,8.56
2023-03-14T21:07:58.948Z,8.56
2023-03-14T21:10:02.046Z,8.56
2023-03-14T21:12:07.075Z,8.57
2023-03-14T21:14:10.102Z,8.54
2023-03-14T21:16:13.336Z,8.50
2023-03-14T21:18:16.559Z,8.38
2023-03-14T21:20:19.707Z,8.30
2023-03-14T21:22:22.860Z,8.19
2023-03-14T21:24:26.697Z,8.10
2023-03-14T21:26:29.809Z,8.06
2023-03-14T21:28:34.310Z,8.03
2023-03-14T21:30:37.603Z,7.92
2023-03-14T21:32:40.764Z,7.87
2023-03-14T21:34:43.939Z,7.79
2023-03-14T21:36:48.801Z,7.77
2023-03-14T21:38:52.261Z,7.75
2023-03-14T21:40:57.331Z,7.67
2023-03-14T21:43:01.474Z,7.60
2023-03-14T21:45:06.875Z,7.40
2023-03-14T21:47:11.271Z,7.43
2023-03-14T21:49:14.467Z,7.44
2023-03-14T21:51:17.755Z,7.45
2023-03-14T21:53:21.212Z,7.46
2023-03-14T21:55:25.511Z,7.47
2023-03-14T21:57:32.748Z,7.51
2023-03-14T21:59:45.492Z,7.51
2023-03-14T22:01:59.175Z,7.44
2023-03-14T22:04:09.440Z,7.40
2023-03-14T22:06:19.530Z,7.36
2023-03-14T22:08:32.522Z,7.35
2023-03-14T22:10:38.034Z,7.46
2023-03-14T22:12:56.505Z,7.41
2023-03-14T22:15:17.358Z,7.48
2023-03-14T22:17:35.762Z,7.49
2023-03-14T22:19:46.950Z,7.46
2023-03-14T22:21:56.026Z,7.53
2023-03-14T22:24:08.303Z,7.54
2023-03-14T22:26:17.494Z,7.57
2023-03-14T22:28:25.439Z,7.57
2023-03-14T22:30:32.256Z,7.61
2023-03-14T22:32:38.420Z,7.63
2023-03-14T22:35:04.245Z,7.59
2023-03-14T22:37:14.007Z,7.51
2023-03-14T22:39:26.663Z,7.43
2023-03-14T22:41:32.547Z,7.45
2023-03-14T22:43:41.285Z,7.37
2023-03-14T22:45:45.475Z,7.34
2023-03-14T22:47:53.982Z,7.36
2023-03-14T22:50:02.563Z,7.27
2023-03-14T22:52:23.021Z,7.19
2023-03-14T22:54:37.968Z,7.06
2023-03-14T22:56:48.336Z,6.84
2023-03-14T22:59:00.365Z,6.66
2023-03-14T23:01:06.348Z,6.58
2023-03-14T23:03:15.850Z,6.43
2023-03-14T23:05:27.772Z,6.40
2023-03-14T23:08:01.792Z,6.31
2023-03-14T23:10:15.737Z,6.27
2023-03-14T23:12:29.686Z,6.28
2023-03-14T23:14:41.032Z,6.20
2023-03-14T23:16:51.861Z,6.20
2023-03-14T23:18:56.388Z,6.14
2023-03-14T23:21:10.834Z,6.16
2023-03-14T23:23:13.900Z,6.17
2023-03-14T23:25:17.200Z,6.20
2023-03-14T23:27:20.319Z,6.21
2023-03-14T23:29:23.434Z,6.12
2023-03-14T23:31:27.023Z,6.09
2023-03-14T23:33:31.364Z,6.04
2023-03-14T23:35:35.920Z,5.97
2023-03-14T23:37:39.160Z,5.95
2023-03-14T23:39:42.738Z,5.99
2023-03-14T23:41:45.850Z,5.89
2023-03-14T23:43:49.491Z,5.85
2023-03-14T23:45:53.993Z,5.85
2023-03-14T23:47:57.731Z,5.86
2023-03-14T23:50:00.868Z,5.84
2023-03-14T23:52:05.862Z,5.78
2023-03-14T23:54:09.061Z,5.75
2023-03-14T23:56:13.496Z,5.77
2023-03-14T23:58:16.666Z,5.71
